Portada
METAR-TAF:

METAR-TAF

Aeroports :

Shawbury, Anglaterra

latitud: 52-48N, longitud: 002-40W, altitud: 76 m

Observació

L'informe es va fer fa 22 minuts, a les 09:50 UTC
Vent 15 kt del Est
Temperatura 10°C
Humitat 66%
Pressió 1022 hPa
Visibilitat 10 km o més
Escasses núvols a una alçada de 2400 ft
Cel ennuvolat a una alçada de 5000 ft

METAR: EGOS 210950Z 10015KT 9999 FEW024 BKN050 10/04 Q1022 NOSIG RMK BLU BLU

Hora: 11:12 (10:12 UTC)

Pronòstic

L'informe es va fer fa 1 hora i 25 minuts, a les 08:47 UTC
Pronòstic vàlid del 21 a les 09 UTC al 21 a les 18 UTC
Vent 12 kt del Est
Visibilitat 10 km o més
Núvols disperses a una alçada de 4000 ft
Probabilitat 40% :
Temporalment
l' 21 a les 09 UTC al 21 a les 11 UTC
Núvols disperses a una alçada de 2000 ft
pluja

TAF: EGOS 210847Z 2109/2118 08012KT 9999 SCT040 PROB40 TEMPO 2109/2111 -RA SCT020

Observacions i pronòstics meteorològics de més de 4000 aeroports (METAR i TAF).

Les estacions disponibles són els punts grocs i vermells al mapa.

Posi el ratolí al punt desitjat per veure el nom de l'estació.

Feu clic per veure les observacions i els pronòstics meteorològics.

Per canviar el mapa: feu clic els botons verds amb una creu de color negre per apropar; al botó verd amb un guió per allunyar la imatge; o en les fletxes verdes per a mapes adjacents.


METAR-TAF: